sensor_id;sensor_type;location;lat;lon;timestamp;P1;durP1;ratioP1;P2;durP2;ratioP2
22778;SDS011;11556;51.194;3.800;2024-01-11T00:00:13;36.15;;;17.08;;
22778;SDS011;11556;51.194;3.800;2024-01-11T00:02:39;38.70;;;17.10;;
22778;SDS011;11556;51.194;3.800;2024-01-11T00:05:05;34.25;;;17.40;;
22778;SDS011;11556;51.194;3.800;2024-01-11T00:07:32;39.22;;;17.05;;
22778;SDS011;11556;51.194;3.800;2024-01-11T00:09:58;36.60;;;16.95;;
22778;SDS011;11556;51.194;3.800;2024-01-11T00:12:25;39.00;;;16.77;;
22778;SDS011;11556;51.194;3.800;2024-01-11T00:14:51;35.95;;;17.17;;
22778;SDS011;11556;51.194;3.800;2024-01-11T00:17:16;35.03;;;16.17;;
22778;SDS011;11556;51.194;3.800;2024-01-11T00:19:42;30.88;;;14.95;;
22778;SDS011;11556;51.194;3.800;2024-01-11T00:22:08;39.85;;;16.40;;
22778;SDS011;11556;51.194;3.800;2024-01-11T00:24:33;37.67;;;17.02;;
22778;SDS011;11556;51.194;3.800;2024-01-11T00:26:59;35.42;;;17.25;;
22778;SDS011;11556;51.194;3.800;2024-01-11T00:29:25;43.00;;;16.45;;
22778;SDS011;11556;51.194;3.800;2024-01-11T00:31:51;42.90;;;16.85;;
22778;SDS011;11556;51.194;3.800;2024-01-11T00:34:16;35.38;;;15.95;;
22778;SDS011;11556;51.194;3.800;2024-01-11T00:36:42;37.30;;;17.05;;
22778;SDS011;11556;51.194;3.800;2024-01-11T00:39:08;39.50;;;16.45;;
22778;SDS011;11556;51.194;3.800;2024-01-11T00:41:34;39.40;;;17.52;;
22778;SDS011;11556;51.194;3.800;2024-01-11T00:43:59;38.05;;;16.38;;
22778;SDS011;11556;51.194;3.800;2024-01-11T00:46:25;39.75;;;16.48;;
22778;SDS011;11556;51.194;3.800;2024-01-11T00:48:50;37.83;;;16.30;;
22778;SDS011;11556;51.194;3.800;2024-01-11T00:51:16;37.97;;;17.00;;
22778;SDS011;11556;51.194;3.800;2024-01-11T00:53:42;36.80;;;17.27;;
22778;SDS011;11556;51.194;3.800;2024-01-11T00:56:17;38.47;;;17.27;;
22778;SDS011;11556;51.194;3.800;2024-01-11T00:58:43;33.80;;;16.25;;
22778;SDS011;11556;51.194;3.800;2024-01-11T01:01:09;32.13;;;16.33;;
22778;SDS011;11556;51.194;3.800;2024-01-11T01:03:35;36.00;;;17.05;;
22778;SDS011;11556;51.194;3.800;2024-01-11T01:06:01;38.42;;;18.10;;
22778;SDS011;11556;51.194;3.800;2024-01-11T01:08:27;36.67;;;17.08;;
22778;SDS011;11556;51.194;3.800;2024-01-11T01:10:53;34.35;;;16.75;;
22778;SDS011;11556;51.194;3.800;2024-01-11T01:13:19;39.47;;;16.85;;
22778;SDS011;11556;51.194;3.800;2024-01-11T01:15:45;34.90;;;16.48;;
22778;SDS011;11556;51.194;3.800;2024-01-11T01:18:10;38.40;;;17.92;;
22778;SDS011;11556;51.194;3.800;2024-01-11T01:20:36;41.78;;;18.80;;
22778;SDS011;11556;51.194;3.800;2024-01-11T01:23:02;40.22;;;17.83;;
22778;SDS011;11556;51.194;3.800;2024-01-11T01:25:28;37.78;;;16.88;;
22778;SDS011;11556;51.194;3.800;2024-01-11T01:27:54;34.22;;;17.13;;
22778;SDS011;11556;51.194;3.800;2024-01-11T01:30:20;37.85;;;17.58;;
22778;SDS011;11556;51.194;3.800;2024-01-11T01:32:46;35.10;;;17.17;;
22778;SDS011;11556;51.194;3.800;2024-01-11T01:35:12;37.67;;;16.50;;
22778;SDS011;11556;51.194;3.800;2024-01-11T01:37:38;34.30;;;16.70;;
22778;SDS011;11556;51.194;3.800;2024-01-11T01:40:03;41.45;;;17.20;;
22778;SDS011;11556;51.194;3.800;2024-01-11T01:42:30;41.38;;;17.88;;
22778;SDS011;11556;51.194;3.800;2024-01-11T01:44:56;40.17;;;17.55;;
22778;SDS011;11556;51.194;3.800;2024-01-11T01:47:21;36.13;;;16.90;;
22778;SDS011;11556;51.194;3.800;2024-01-11T01:49:47;36.65;;;16.88;;
22778;SDS011;11556;51.194;3.800;2024-01-11T01:52:14;38.28;;;17.13;;
22778;SDS011;11556;51.194;3.800;2024-01-11T01:54:42;38.03;;;18.13;;
22778;SDS011;11556;51.194;3.800;2024-01-11T01:57:08;36.17;;;17.73;;
22778;SDS011;11556;51.194;3.800;2024-01-11T01:59:37;36.97;;;16.98;;
22778;SDS011;11556;51.194;3.800;2024-01-11T02:02:04;36.85;;;17.83;;
22778;SDS011;11556;51.194;3.800;2024-01-11T02:04:30;39.83;;;17.00;;
22778;SDS011;11556;51.194;3.800;2024-01-11T02:06:56;40.35;;;18.13;;
22778;SDS011;11556;51.194;3.800;2024-01-11T02:09:23;39.42;;;18.13;;
22778;SDS011;11556;51.194;3.800;2024-01-11T02:11:50;40.92;;;17.38;;
22778;SDS011;11556;51.194;3.800;2024-01-11T02:14:18;43.35;;;18.48;;
22778;SDS011;11556;51.194;3.800;2024-01-11T02:16:44;41.22;;;18.13;;
22778;SDS011;11556;51.194;3.800;2024-01-11T02:19:11;37.60;;;18.30;;
22778;SDS011;11556;51.194;3.800;2024-01-11T02:21:39;36.85;;;17.05;;
22778;SDS011;11556;51.194;3.800;2024-01-11T02:24:11;38.97;;;17.60;;
22778;SDS011;11556;51.194;3.800;2024-01-11T02:26:36;37.63;;;17.33;;
22778;SDS011;11556;51.194;3.800;2024-01-11T02:29:22;41.92;;;17.83;;
22778;SDS011;11556;51.194;3.800;2024-01-11T02:31:48;41.35;;;18.08;;
22778;SDS011;11556;51.194;3.800;2024-01-11T02:34:13;38.30;;;17.63;;
22778;SDS011;11556;51.194;3.800;2024-01-11T02:36:39;42.75;;;18.75;;
22778;SDS011;11556;51.194;3.800;2024-01-11T02:39:06;37.72;;;17.83;;
22778;SDS011;11556;51.194;3.800;2024-01-11T02:41:32;39.00;;;17.02;;
22778;SDS011;11556;51.194;3.800;2024-01-11T02:43:59;40.55;;;17.42;;
22778;SDS011;11556;51.194;3.800;2024-01-11T02:46:26;37.47;;;17.63;;
22778;SDS011;11556;51.194;3.800;2024-01-11T02:48:51;39.45;;;17.08;;
22778;SDS011;11556;51.194;3.800;2024-01-11T02:51:17;38.45;;;17.73;;
22778;SDS011;11556;51.194;3.800;2024-01-11T02:53:43;43.83;;;19.38;;
22778;SDS011;11556;51.194;3.800;2024-01-11T02:56:08;40.45;;;18.02;;
22778;SDS011;11556;51.194;3.800;2024-01-11T02:58:34;44.97;;;19.33;;
22778;SDS011;11556;51.194;3.800;2024-01-11T03:01:00;39.63;;;19.20;;
22778;SDS011;11556;51.194;3.800;2024-01-11T03:03:26;43.85;;;20.15;;
22778;SDS011;11556;51.194;3.800;2024-01-11T03:05:52;40.47;;;18.73;;
22778;SDS011;11556;51.194;3.800;2024-01-11T03:08:18;43.08;;;19.85;;
22778;SDS011;11556;51.194;3.800;2024-01-11T03:10:43;43.92;;;18.75;;
22778;SDS011;11556;51.194;3.800;2024-01-11T03:13:09;41.22;;;18.83;;
22778;SDS011;11556;51.194;3.800;2024-01-11T03:15:35;46.72;;;20.08;;
22778;SDS011;11556;51.194;3.800;2024-01-11T03:18:01;43.72;;;18.88;;
22778;SDS011;11556;51.194;3.800;2024-01-11T03:20:26;41.40;;;19.63;;
22778;SDS011;11556;51.194;3.800;2024-01-11T03:22:52;43.55;;;20.02;;
22778;SDS011;11556;51.194;3.800;2024-01-11T03:25:18;39.83;;;18.25;;
22778;SDS011;11556;51.194;3.800;2024-01-11T03:27:45;41.50;;;18.83;;
22778;SDS011;11556;51.194;3.800;2024-01-11T03:30:11;40.40;;;18.10;;
22778;SDS011;11556;51.194;3.800;2024-01-11T03:32:37;42.22;;;20.15;;
22778;SDS011;11556;51.194;3.800;2024-01-11T03:35:04;41.58;;;18.98;;
22778;SDS011;11556;51.194;3.800;2024-01-11T03:37:32;43.63;;;19.38;;
22778;SDS011;11556;51.194;3.800;2024-01-11T03:39:57;43.58;;;20.35;;
22778;SDS011;11556;51.194;3.800;2024-01-11T03:42:23;45.83;;;20.83;;
22778;SDS011;11556;51.194;3.800;2024-01-11T03:44:49;43.60;;;19.70;;
22778;SDS011;11556;51.194;3.800;2024-01-11T03:47:15;39.22;;;18.90;;
22778;SDS011;11556;51.194;3.800;2024-01-11T03:49:40;45.10;;;19.77;;
22778;SDS011;11556;51.194;3.800;2024-01-11T03:52:06;40.13;;;20.10;;
22778;SDS011;11556;51.194;3.800;2024-01-11T03:54:32;45.38;;;20.52;;
22778;SDS011;11556;51.194;3.800;2024-01-11T03:56:57;41.15;;;19.23;;
22778;SDS011;11556;51.194;3.800;2024-01-11T03:59:23;42.50;;;19.85;;
22778;SDS011;11556;51.194;3.800;2024-01-11T04:01:48;42.28;;;18.63;;
22778;SDS011;11556;51.194;3.800;2024-01-11T04:04:14;40.90;;;19.15;;
22778;SDS011;11556;51.194;3.800;2024-01-11T04:06:40;42.75;;;18.85;;
22778;SDS011;11556;51.194;3.800;2024-01-11T04:09:05;39.85;;;18.50;;
22778;SDS011;11556;51.194;3.800;2024-01-11T04:11:31;40.50;;;18.40;;
22778;SDS011;11556;51.194;3.800;2024-01-11T04:13:57;47.10;;;19.60;;
22778;SDS011;11556;51.194;3.800;2024-01-11T04:16:22;43.92;;;18.35;;
22778;SDS011;11556;51.194;3.800;2024-01-11T04:18:48;38.33;;;17.88;;
22778;SDS011;11556;51.194;3.800;2024-01-11T04:21:20;42.60;;;18.77;;
22778;SDS011;11556;51.194;3.800;2024-01-11T04:23:50;42.38;;;18.85;;
22778;SDS011;11556;51.194;3.800;2024-01-11T04:26:16;43.22;;;19.10;;
22778;SDS011;11556;51.194;3.800;2024-01-11T04:28:44;50.78;;;20.27;;
22778;SDS011;11556;51.194;3.800;2024-01-11T04:31:11;46.95;;;19.10;;
22778;SDS011;11556;51.194;3.800;2024-01-11T04:33:39;43.22;;;17.58;;
22778;SDS011;11556;51.194;3.800;2024-01-11T04:36:06;44.78;;;18.92;;
22778;SDS011;11556;51.194;3.800;2024-01-11T04:38:32;43.90;;;19.60;;
22778;SDS011;11556;51.194;3.800;2024-01-11T04:40:58;43.55;;;19.17;;
22778;SDS011;11556;51.194;3.800;2024-01-11T04:43:24;43.42;;;18.40;;
22778;SDS011;11556;51.194;3.800;2024-01-11T04:45:49;43.80;;;18.83;;
22778;SDS011;11556;51.194;3.800;2024-01-11T04:48:15;40.10;;;18.40;;
22778;SDS011;11556;51.194;3.800;2024-01-11T04:50:40;43.53;;;19.23;;
22778;SDS011;11556;51.194;3.800;2024-01-11T04:53:06;41.67;;;19.73;;
22778;SDS011;11556;51.194;3.800;2024-01-11T04:55:32;40.65;;;19.20;;
22778;SDS011;11556;51.194;3.800;2024-01-11T04:57:57;37.20;;;17.75;;
22778;SDS011;11556;51.194;3.800;2024-01-11T05:00:23;45.05;;;20.40;;
22778;SDS011;11556;51.194;3.800;2024-01-11T05:02:49;49.72;;;19.10;;
22778;SDS011;11556;51.194;3.800;2024-01-11T05:05:14;39.70;;;17.70;;
22778;SDS011;11556;51.194;3.800;2024-01-11T05:07:40;45.60;;;19.88;;
22778;SDS011;11556;51.194;3.800;2024-01-11T05:10:06;42.22;;;18.92;;
22778;SDS011;11556;51.194;3.800;2024-01-11T05:12:32;41.20;;;18.00;;
22778;SDS011;11556;51.194;3.800;2024-01-11T05:14:58;42.95;;;18.38;;
22778;SDS011;11556;51.194;3.800;2024-01-11T05:17:24;39.97;;;18.38;;
22778;SDS011;11556;51.194;3.800;2024-01-11T05:19:51;41.10;;;18.90;;
22778;SDS011;11556;51.194;3.800;2024-01-11T05:22:17;39.85;;;18.90;;
22778;SDS011;11556;51.194;3.800;2024-01-11T05:24:43;40.55;;;18.55;;
22778;SDS011;11556;51.194;3.800;2024-01-11T05:27:09;42.70;;;18.92;;
22778;SDS011;11556;51.194;3.800;2024-01-11T05:29:34;45.25;;;18.95;;
22778;SDS011;11556;51.194;3.800;2024-01-11T05:32:00;43.78;;;19.08;;
22778;SDS011;11556;51.194;3.800;2024-01-11T05:34:26;41.25;;;19.35;;
22778;SDS011;11556;51.194;3.800;2024-01-11T05:36:51;41.00;;;18.63;;
22778;SDS011;11556;51.194;3.800;2024-01-11T05:39:17;40.85;;;18.70;;
22778;SDS011;11556;51.194;3.800;2024-01-11T05:41:43;42.83;;;19.65;;
22778;SDS011;11556;51.194;3.800;2024-01-11T05:44:10;43.30;;;19.85;;
22778;SDS011;11556;51.194;3.800;2024-01-11T05:46:37;39.05;;;18.45;;
22778;SDS011;11556;51.194;3.800;2024-01-11T05:49:02;39.42;;;17.98;;
22778;SDS011;11556;51.194;3.800;2024-01-11T05:51:28;40.45;;;18.15;;
22778;SDS011;11556;51.194;3.800;2024-01-11T05:53:54;38.08;;;18.00;;
22778;SDS011;11556;51.194;3.800;2024-01-11T05:56:20;41.53;;;17.90;;
22778;SDS011;11556;51.194;3.800;2024-01-11T05:58:46;43.70;;;19.75;;
22778;SDS011;11556;51.194;3.800;2024-01-11T06:01:11;42.08;;;17.45;;
22778;SDS011;11556;51.194;3.800;2024-01-11T06:03:37;37.88;;;18.08;;
22778;SDS011;11556;51.194;3.800;2024-01-11T06:06:04;40.10;;;18.25;;
22778;SDS011;11556;51.194;3.800;2024-01-11T06:08:30;43.47;;;19.27;;
22778;SDS011;11556;51.194;3.800;2024-01-11T06:10:59;43.10;;;19.10;;
22778;SDS011;11556;51.194;3.800;2024-01-11T06:13:25;38.65;;;18.67;;
22778;SDS011;11556;51.194;3.800;2024-01-11T06:15:51;40.03;;;18.83;;
22778;SDS011;11556;51.194;3.800;2024-01-11T06:18:17;39.50;;;18.67;;
22778;SDS011;11556;51.194;3.800;2024-01-11T06:20:42;43.10;;;19.10;;
22778;SDS011;11556;51.194;3.800;2024-01-11T06:23:08;41.20;;;18.40;;
22778;SDS011;11556;51.194;3.800;2024-01-11T06:25:33;46.03;;;18.83;;
22778;SDS011;11556;51.194;3.800;2024-01-11T06:27:59;40.78;;;19.08;;
22778;SDS011;11556;51.194;3.800;2024-01-11T06:30:25;42.47;;;18.73;;
22778;SDS011;11556;51.194;3.800;2024-01-11T06:32:50;39.70;;;18.58;;
22778;SDS011;11556;51.194;3.800;2024-01-11T06:35:16;38.80;;;17.95;;
22778;SDS011;11556;51.194;3.800;2024-01-11T06:37:42;45.15;;;18.52;;
22778;SDS011;11556;51.194;3.800;2024-01-11T06:40:08;35.30;;;17.73;;
22778;SDS011;11556;51.194;3.800;2024-01-11T06:42:34;41.42;;;18.77;;
22778;SDS011;11556;51.194;3.800;2024-01-11T06:45:00;41.13;;;18.77;;
22778;SDS011;11556;51.194;3.800;2024-01-11T06:47:26;37.92;;;18.95;;
22778;SDS011;11556;51.194;3.800;2024-01-11T06:49:53;46.05;;;19.25;;
22778;SDS011;11556;51.194;3.800;2024-01-11T06:52:18;39.47;;;18.17;;
22778;SDS011;11556;51.194;3.800;2024-01-11T06:54:44;43.20;;;18.02;;
22778;SDS011;11556;51.194;3.800;2024-01-11T06:57:10;43.20;;;19.23;;
22778;SDS011;11556;51.194;3.800;2024-01-11T06:59:36;43.03;;;20.08;;
22778;SDS011;11556;51.194;3.800;2024-01-11T07:02:02;35.60;;;17.58;;
22778;SDS011;11556;51.194;3.800;2024-01-11T07:04:28;39.55;;;17.80;;
22778;SDS011;11556;51.194;3.800;2024-01-11T07:06:54;37.20;;;18.05;;
22778;SDS011;11556;51.194;3.800;2024-01-11T07:09:19;39.30;;;18.48;;
22778;SDS011;11556;51.194;3.800;2024-01-11T07:11:45;39.00;;;18.35;;
22778;SDS011;11556;51.194;3.800;2024-01-11T07:14:11;43.17;;;18.70;;
22778;SDS011;11556;51.194;3.800;2024-01-11T07:16:36;38.20;;;18.10;;
22778;SDS011;11556;51.194;3.800;2024-01-11T07:19:02;46.78;;;19.92;;
22778;SDS011;11556;51.194;3.800;2024-01-11T07:21:28;42.05;;;19.30;;
22778;SDS011;11556;51.194;3.800;2024-01-11T07:23:59;42.75;;;19.75;;
22778;SDS011;11556;51.194;3.800;2024-01-11T07:26:25;39.25;;;17.95;;
22778;SDS011;11556;51.194;3.800;2024-01-11T07:28:52;40.97;;;17.83;;
22778;SDS011;11556;51.194;3.800;2024-01-11T07:31:20;41.65;;;18.25;;
22778;SDS011;11556;51.194;3.800;2024-01-11T07:33:46;42.88;;;18.65;;
22778;SDS011;11556;51.194;3.800;2024-01-11T07:36:12;43.80;;;18.58;;
22778;SDS011;11556;51.194;3.800;2024-01-11T07:38:38;42.17;;;18.58;;
22778;SDS011;11556;51.194;3.800;2024-01-11T07:41:04;41.20;;;17.92;;
22778;SDS011;11556;51.194;3.800;2024-01-11T07:43:29;40.22;;;18.45;;
22778;SDS011;11556;51.194;3.800;2024-01-11T07:45:57;43.70;;;18.95;;
22778;SDS011;11556;51.194;3.800;2024-01-11T07:48:23;39.88;;;19.30;;
22778;SDS011;11556;51.194;3.800;2024-01-11T07:50:49;42.20;;;19.25;;
22778;SDS011;11556;51.194;3.800;2024-01-11T07:53:14;50.35;;;20.25;;
22778;SDS011;11556;51.194;3.800;2024-01-11T07:55:40;42.80;;;18.83;;
22778;SDS011;11556;51.194;3.800;2024-01-11T07:58:06;44.13;;;19.00;;
22778;SDS011;11556;51.194;3.800;2024-01-11T08:00:32;42.97;;;18.95;;
22778;SDS011;11556;51.194;3.800;2024-01-11T08:02:58;43.65;;;18.88;;
22778;SDS011;11556;51.194;3.800;2024-01-11T08:05:24;37.40;;;17.52;;
22778;SDS011;11556;51.194;3.800;2024-01-11T08:07:50;43.22;;;19.10;;
22778;SDS011;11556;51.194;3.800;2024-01-11T08:10:16;37.75;;;18.23;;
22778;SDS011;11556;51.194;3.800;2024-01-11T08:12:42;39.95;;;18.60;;
22778;SDS011;11556;51.194;3.800;2024-01-11T08:15:08;41.05;;;18.98;;
22778;SDS011;11556;51.194;3.800;2024-01-11T08:17:38;43.42;;;19.95;;
22778;SDS011;11556;51.194;3.800;2024-01-11T08:20:04;45.13;;;19.45;;
22778;SDS011;11556;51.194;3.800;2024-01-11T08:22:33;42.05;;;18.75;;
22778;SDS011;11556;51.194;3.800;2024-01-11T08:25:01;43.05;;;18.85;;
22778;SDS011;11556;51.194;3.800;2024-01-11T08:27:29;37.42;;;18.17;;
22778;SDS011;11556;51.194;3.800;2024-01-11T08:29:56;45.08;;;19.58;;
22778;SDS011;11556;51.194;3.800;2024-01-11T08:32:22;39.15;;;19.33;;
22778;SDS011;11556;51.194;3.800;2024-01-11T08:34:48;43.72;;;19.48;;
22778;SDS011;11556;51.194;3.800;2024-01-11T08:37:13;41.03;;;18.58;;
22778;SDS011;11556;51.194;3.800;2024-01-11T08:39:39;42.95;;;19.10;;
22778;SDS011;11556;51.194;3.800;2024-01-11T08:42:05;33.70;;;18.00;;
22778;SDS011;11556;51.194;3.800;2024-01-11T08:44:31;41.05;;;19.08;;
22778;SDS011;11556;51.194;3.800;2024-01-11T08:46:57;38.03;;;18.60;;
22778;SDS011;11556;51.194;3.800;2024-01-11T08:49:24;42.42;;;18.85;;
22778;SDS011;11556;51.194;3.800;2024-01-11T08:51:50;41.53;;;19.55;;
22778;SDS011;11556;51.194;3.800;2024-01-11T08:54:16;38.55;;;19.15;;
22778;SDS011;11556;51.194;3.800;2024-01-11T08:56:42;36.40;;;18.60;;
22778;SDS011;11556;51.194;3.800;2024-01-11T08:59:07;37.78;;;18.23;;
22778;SDS011;11556;51.194;3.800;2024-01-11T09:01:34;38.83;;;18.35;;
22778;SDS011;11556;51.194;3.800;2024-01-11T09:04:01;36.50;;;18.38;;
22778;SDS011;11556;51.194;3.800;2024-01-11T09:06:27;39.35;;;19.10;;
22778;SDS011;11556;51.194;3.800;2024-01-11T09:08:52;34.92;;;17.83;;
22778;SDS011;11556;51.194;3.800;2024-01-11T09:11:18;32.97;;;18.02;;
22778;SDS011;11556;51.194;3.800;2024-01-11T09:13:44;36.38;;;17.58;;
22778;SDS011;11556;51.194;3.800;2024-01-11T09:16:10;37.75;;;17.65;;
22778;SDS011;11556;51.194;3.800;2024-01-11T09:18:40;37.33;;;18.10;;
22778;SDS011;11556;51.194;3.800;2024-01-11T09:21:05;32.50;;;16.40;;
22778;SDS011;11556;51.194;3.800;2024-01-11T09:23:31;36.30;;;17.67;;
22778;SDS011;11556;51.194;3.800;2024-01-11T09:25:57;35.15;;;17.83;;
22778;SDS011;11556;51.194;3.800;2024-01-11T09:28:22;33.65;;;16.98;;
22778;SDS011;11556;51.194;3.800;2024-01-11T09:30:48;36.08;;;17.45;;
22778;SDS011;11556;51.194;3.800;2024-01-11T09:33:14;36.47;;;17.42;;
22778;SDS011;11556;51.194;3.800;2024-01-11T09:35:40;38.00;;;18.17;;
22778;SDS011;11556;51.194;3.800;2024-01-11T09:38:06;34.08;;;18.02;;
22778;SDS011;11556;51.194;3.800;2024-01-11T09:40:31;40.78;;;18.85;;
22778;SDS011;11556;51.194;3.800;2024-01-11T09:42:57;36.53;;;18.25;;
22778;SDS011;11556;51.194;3.800;2024-01-11T09:45:23;39.97;;;19.05;;
22778;SDS011;11556;51.194;3.800;2024-01-11T09:47:50;37.97;;;18.35;;
22778;SDS011;11556;51.194;3.800;2024-01-11T09:50:17;32.65;;;17.63;;
22778;SDS011;11556;51.194;3.800;2024-01-11T09:52:45;35.28;;;18.20;;
22778;SDS011;11556;51.194;3.800;2024-01-11T09:55:15;36.38;;;18.48;;
22778;SDS011;11556;51.194;3.800;2024-01-11T09:57:44;37.38;;;17.92;;
22778;SDS011;11556;51.194;3.800;2024-01-11T10:00:19;34.63;;;17.65;;
22778;SDS011;11556;51.194;3.800;2024-01-11T10:02:48;35.92;;;17.85;;
22778;SDS011;11556;51.194;3.800;2024-01-11T10:05:16;47.90;;;22.05;;
22778;SDS011;11556;51.194;3.800;2024-01-11T10:07:42;52.85;;;22.17;;
22778;SDS011;11556;51.194;3.800;2024-01-11T10:10:09;55.92;;;23.85;;
22778;SDS011;11556;51.194;3.800;2024-01-11T10:12:37;45.78;;;21.23;;
22778;SDS011;11556;51.194;3.800;2024-01-11T10:15:07;38.70;;;19.95;;
22778;SDS011;11556;51.194;3.800;2024-01-11T10:17:35;40.85;;;17.95;;
22778;SDS011;11556;51.194;3.800;2024-01-11T10:20:14;38.33;;;18.13;;
22778;SDS011;11556;51.194;3.800;2024-01-11T10:22:40;38.15;;;18.15;;
22778;SDS011;11556;51.194;3.800;2024-01-11T10:25:13;35.20;;;18.05;;
22778;SDS011;11556;51.194;3.800;2024-01-11T10:27:40;34.00;;;18.35;;
22778;SDS011;11556;51.194;3.800;2024-01-11T10:30:07;33.22;;;18.73;;
22778;SDS011;11556;51.194;3.800;2024-01-11T10:32:33;35.92;;;17.58;;
22778;SDS011;11556;51.194;3.800;2024-01-11T10:35:00;37.08;;;18.80;;
22778;SDS011;11556;51.194;3.800;2024-01-11T10:37:30;37.60;;;18.30;;
22778;SDS011;11556;51.194;3.800;2024-01-11T10:40:03;33.65;;;19.17;;
22778;SDS011;11556;51.194;3.800;2024-01-11T10:42:43;35.88;;;18.15;;
22778;SDS011;11556;51.194;3.800;2024-01-11T10:45:14;31.40;;;17.75;;
22778;SDS011;11556;51.194;3.800;2024-01-11T10:47:54;34.45;;;18.77;;
22778;SDS011;11556;51.194;3.800;2024-01-11T10:50:34;33.70;;;18.35;;
22778;SDS011;11556;51.194;3.800;2024-01-11T10:55:27;34.00;;;19.13;;
22778;SDS011;11556;51.194;3.800;2024-01-11T10:57:56;37.83;;;19.33;;
22778;SDS011;11556;51.194;3.800;2024-01-11T11:00:23;36.85;;;17.75;;
22778;SDS011;11556;51.194;3.800;2024-01-11T11:02:50;47.05;;;23.92;;
22778;SDS011;11556;51.194;3.800;2024-01-11T11:05:18;36.42;;;18.95;;
22778;SDS011;11556;51.194;3.800;2024-01-11T11:07:46;32.65;;;17.65;;
22778;SDS011;11556;51.194;3.800;2024-01-11T11:10:14;35.85;;;18.40;;
22778;SDS011;11556;51.194;3.800;2024-01-11T11:12:41;36.00;;;19.05;;
22778;SDS011;11556;51.194;3.800;2024-01-11T11:15:08;32.08;;;17.63;;
22778;SDS011;11556;51.194;3.800;2024-01-11T11:17:36;34.47;;;18.40;;
22778;SDS011;11556;51.194;3.800;2024-01-11T11:20:03;33.78;;;18.88;;
22778;SDS011;11556;51.194;3.800;2024-01-11T11:22:36;37.08;;;18.92;;
22778;SDS011;11556;51.194;3.800;2024-01-11T11:25:08;38.22;;;19.50;;
22778;SDS011;11556;51.194;3.800;2024-01-11T11:27:35;38.13;;;19.25;;
22778;SDS011;11556;51.194;3.800;2024-01-11T11:30:02;39.35;;;19.92;;
22778;SDS011;11556;51.194;3.800;2024-01-11T11:32:35;41.42;;;20.17;;
22778;SDS011;11556;51.194;3.800;2024-01-11T11:35:07;36.92;;;19.40;;
22778;SDS011;11556;51.194;3.800;2024-01-11T11:37:33;34.72;;;18.33;;
22778;SDS011;11556;51.194;3.800;2024-01-11T11:40:02;35.35;;;18.75;;
22778;SDS011;11556;51.194;3.800;2024-01-11T11:42:30;34.45;;;19.00;;
22778;SDS011;11556;51.194;3.800;2024-01-11T11:44:56;34.30;;;18.20;;
22778;SDS011;11556;51.194;3.800;2024-01-11T11:47:23;34.50;;;18.75;;
22778;SDS011;11556;51.194;3.800;2024-01-11T11:50:08;36.85;;;19.13;;
22778;SDS011;11556;51.194;3.800;2024-01-11T11:52:35;35.58;;;19.92;;
22778;SDS011;11556;51.194;3.800;2024-01-11T11:55:02;34.50;;;19.30;;
22778;SDS011;11556;51.194;3.800;2024-01-11T11:57:30;36.17;;;19.30;;
22778;SDS011;11556;51.194;3.800;2024-01-11T11:59:56;39.00;;;18.90;;
22778;SDS011;11556;51.194;3.800;2024-01-11T12:02:23;42.40;;;20.02;;
22778;SDS011;11556;51.194;3.800;2024-01-11T12:04:50;71.43;;;27.42;;
22778;SDS011;11556;51.194;3.800;2024-01-11T12:07:16;40.08;;;19.15;;
22778;SDS011;11556;51.194;3.800;2024-01-11T12:09:42;31.17;;;17.02;;
22778;SDS011;11556;51.194;3.800;2024-01-11T12:12:08;29.67;;;15.88;;
22778;SDS011;11556;51.194;3.800;2024-01-11T12:14:34;32.30;;;15.45;;
22778;SDS011;11556;51.194;3.800;2024-01-11T12:17:00;31.42;;;16.33;;
22778;SDS011;11556;51.194;3.800;2024-01-11T12:19:27;29.73;;;15.95;;
22778;SDS011;11556;51.194;3.800;2024-01-11T12:21:53;26.38;;;15.93;;
22778;SDS011;11556;51.194;3.800;2024-01-11T12:24:19;34.47;;;15.55;;
22778;SDS011;11556;51.194;3.800;2024-01-11T12:26:49;28.35;;;15.13;;
22778;SDS011;11556;51.194;3.800;2024-01-11T12:29:22;29.25;;;15.52;;
22778;SDS011;11556;51.194;3.800;2024-01-11T12:31:48;29.35;;;15.45;;
22778;SDS011;11556;51.194;3.800;2024-01-11T12:34:15;27.50;;;15.32;;
22778;SDS011;11556;51.194;3.800;2024-01-11T12:36:41;29.05;;;15.52;;
22778;SDS011;11556;51.194;3.800;2024-01-11T12:39:07;32.38;;;15.68;;
22778;SDS011;11556;51.194;3.800;2024-01-11T12:41:38;28.88;;;15.18;;
22778;SDS011;11556;51.194;3.800;2024-01-11T12:44:04;31.77;;;16.70;;
22778;SDS011;11556;51.194;3.800;2024-01-11T12:46:30;29.45;;;15.82;;
22778;SDS011;11556;51.194;3.800;2024-01-11T12:48:56;27.83;;;14.82;;
22778;SDS011;11556;51.194;3.800;2024-01-11T12:51:21;30.45;;;14.57;;
22778;SDS011;11556;51.194;3.800;2024-01-11T12:53:49;26.95;;;14.15;;
22778;SDS011;11556;51.194;3.800;2024-01-11T12:56:16;25.13;;;13.95;;
22778;SDS011;11556;51.194;3.800;2024-01-11T12:58:43;23.30;;;13.30;;
22778;SDS011;11556;51.194;3.800;2024-01-11T13:01:11;21.27;;;12.73;;
22778;SDS011;11556;51.194;3.800;2024-01-11T13:03:38;25.02;;;14.10;;
22778;SDS011;11556;51.194;3.800;2024-01-11T13:06:04;25.65;;;13.27;;
22778;SDS011;11556;51.194;3.800;2024-01-11T13:08:31;29.48;;;13.95;;
22778;SDS011;11556;51.194;3.800;2024-01-11T13:10:57;30.00;;;17.13;;
22778;SDS011;11556;51.194;3.800;2024-01-11T13:13:23;29.23;;;14.55;;
22778;SDS011;11556;51.194;3.800;2024-01-11T13:15:49;30.40;;;15.73;;
22778;SDS011;11556;51.194;3.800;2024-01-11T13:18:16;27.80;;;15.18;;
22778;SDS011;11556;51.194;3.800;2024-01-11T13:20:42;33.65;;;16.50;;
22778;SDS011;11556;51.194;3.800;2024-01-11T13:23:11;31.85;;;16.33;;
22778;SDS011;11556;51.194;3.800;2024-01-11T13:25:39;29.70;;;16.35;;
22778;SDS011;11556;51.194;3.800;2024-01-11T13:28:06;32.25;;;16.98;;
22778;SDS011;11556;51.194;3.800;2024-01-11T13:30:32;32.95;;;17.70;;
22778;SDS011;11556;51.194;3.800;2024-01-11T13:32:58;29.85;;;17.40;;
22778;SDS011;11556;51.194;3.800;2024-01-11T13:35:24;32.67;;;19.27;;
22778;SDS011;11556;51.194;3.800;2024-01-11T13:37:50;34.30;;;19.85;;
22778;SDS011;11556;51.194;3.800;2024-01-11T13:40:16;34.45;;;20.55;;
22778;SDS011;11556;51.194;3.800;2024-01-11T13:42:42;36.45;;;21.13;;
22778;SDS011;11556;51.194;3.800;2024-01-11T13:45:08;39.70;;;21.45;;
22778;SDS011;11556;51.194;3.800;2024-01-11T13:47:35;36.13;;;20.05;;
22778;SDS011;11556;51.194;3.800;2024-01-11T13:50:01;39.10;;;21.50;;
22778;SDS011;11556;51.194;3.800;2024-01-11T13:52:26;28.67;;;15.57;;
22778;SDS011;11556;51.194;3.800;2024-01-11T13:54:52;29.60;;;14.75;;
22778;SDS011;11556;51.194;3.800;2024-01-11T13:57:18;26.52;;;13.85;;
22778;SDS011;11556;51.194;3.800;2024-01-11T13:59:43;33.63;;;16.08;;
22778;SDS011;11556;51.194;3.800;2024-01-11T14:02:09;31.73;;;15.52;;
22778;SDS011;11556;51.194;3.800;2024-01-11T14:04:35;33.58;;;16.40;;
22778;SDS011;11556;51.194;3.800;2024-01-11T14:07:01;30.55;;;16.33;;
22778;SDS011;11556;51.194;3.800;2024-01-11T14:09:28;36.13;;;16.67;;
22778;SDS011;11556;51.194;3.800;2024-01-11T14:11:54;31.05;;;14.27;;
22778;SDS011;11556;51.194;3.800;2024-01-11T14:14:20;32.00;;;16.17;;
22778;SDS011;11556;51.194;3.800;2024-01-11T14:16:46;31.73;;;16.77;;
22778;SDS011;11556;51.194;3.800;2024-01-11T14:19:12;30.17;;;16.58;;